Tortugas, Argentina
Current Conditions -  °F | °C
As of 12:00 AM on Saturday 22 Nov 2014 (Local Time) from SAAR Reporting Station
Clear Clear  
Wind Chill: 59°   Ceiling: Unl
Heat Index: 59°   Visibility: 6mi
Dew Point: 55°   Wind: 6mph
Humidity: 88%   Direction: 200°SSW
Pressure: 29.97"   Gusts: NA
Location:  32.73°S, 61.82°W
Report Text: SAAR 220300Z 20005KT CAVOK 15/13 Q1015
Loading
Personal Weather Stations






























Interactive Weather Map New forecast layout! Learn more

10-Day Weather Forecast

Advertisements
Track Severe Weather on mobile